This is the latest recevied weather packets stored in our database for station/object K6CQU-13. If no packets are shown the sender has not sent any weather packets the latest 10 day(s).
| Time | Temp. | Humidity | Pressure | Rain* | Wind** | Luminosity | Snow |
|---|---|---|---|---|---|---|---|
| 1777772116 | 17.78° C | 64% | 1009.6 hPa | 0 mm | - | 115 W/m² | - |
| 1777768218 | 20° C | 58% | 1009.6 hPa | 0 mm | - | 376 W/m² | - |
| 1777767918 | 20° C | 58% | 1009.6 hPa | 0 mm | - | 328 W/m² | - |
| 1777767618 | 20° C | 58% | 1009.6 hPa | 0 mm | - | 305 W/m² | - |
| 1777767018 | 20° C | 57% | 1009.6 hPa | 0 mm | - | 412 W/m² | - |
| 1777766718 | 20° C | 56% | 1009.6 hPa | 0 mm | - | 393 W/m² | - |
| 1777764918 | 21.11° C | 55% | 1009.9 hPa | 0 mm | - | 478 W/m² | - |
| 1777764618 | 21.11° C | 54% | 1009.9 hPa | 0 mm | - | 380 W/m² | - |
| 1777764018 | 21.67° C | 53% | 1009.9 hPa | 0 mm | - | 440 W/m² | - |
| 1777763718 | 22.78° C | 51% | 1009.9 hPa | 0 mm | - | 496 W/m² | - |
| 1777763418 | 23.33° C | 49% | 1010 hPa | 0 mm | - | 533 W/m² | - |
| 1777762218 | 24.44° C | 44% | 1010.3 hPa | 0 mm | - | 663 W/m² | - |
| 1777761918 | 24.44° C | 44% | 1010.4 hPa | 0 mm | - | 618 W/m² | - |
| 1777761618 | 24.44° C | 44% | 1010.6 hPa | 0 mm | - | 714 W/m² | - |
| 1777761318 | 24.44° C | 45% | 1010.6 hPa | 0 mm | - | 643 W/m² | - |
| 1777761018 | 23.89° C | 44% | 1010.6 hPa | 0 mm | - | 666 W/m² | - |
| 1777760718 | 24.44° C | 44% | 1010.7 hPa | 0 mm | - | 724 W/m² | - |
| 1777760418 | 24.44° C | 45% | 1010.8 hPa | 0 mm | - | 721 W/m² | - |
| 1777760118 | 23.89° C | 45% | 1010.8 hPa | 0 mm | - | 634 W/m² | - |
| 1777759818 | 23.89° C | 45% | 1010.9 hPa | 0 mm | - | 628 W/m² | - |
| 1777759518 | 23.89° C | 45% | 1011 hPa | 0 mm | - | 648 W/m² | - |
| 1777758918 | 23.33° C | 49% | 1011.1 hPa | 0 mm | - | 669 W/m² | - |
| 1777758618 | 22.78° C | 48% | 1011.1 hPa | 0 mm | - | 693 W/m² | - |
| 1777758318 | 22.78° C | 48% | 1011.1 hPa | 0 mm | - | 692 W/m² | - |
| 1777758018 | 22.78° C | 49% | 1011.2 hPa | 0 mm | - | 748 W/m² | - |
* Rain latest hour (hover to see other rain measurements)
** Current wind speed in m/s (hover to see current wind gust speed)